createdAt,value
2018-10-09T09:09:15.404Z,67.50
2018-10-09T09:10:15.353Z,61.88
2018-10-09T09:11:15.333Z,67.50
2018-10-09T09:12:15.542Z,61.88
2018-10-09T09:13:15.487Z,56.25
2018-10-09T09:14:15.331Z,56.25
2018-10-09T09:15:15.312Z,56.25
2018-10-09T09:16:15.265Z,61.88
2018-10-09T09:17:15.268Z,61.88
2018-10-09T09:18:15.262Z,67.50
2018-10-09T09:19:15.260Z,123.75
2018-10-09T09:20:15.210Z,157.50
2018-10-09T09:21:15.437Z,78.75
2018-10-09T09:22:15.187Z,67.50
2018-10-09T09:23:15.224Z,67.50
2018-10-09T09:24:15.163Z,73.13
2018-10-09T09:25:15.145Z,73.13
2018-10-09T09:26:15.192Z,95.63
2018-10-09T09:27:15.271Z,101.25
2018-10-09T09:28:15.102Z,78.75
2018-10-09T09:29:15.084Z,73.13
2018-10-09T09:30:15.073Z,78.75
2018-10-09T09:31:15.070Z,78.75
2018-10-09T09:32:15.096Z,73.13
2018-10-09T09:33:15.101Z,78.75
2018-10-09T09:34:15.012Z,78.75
2018-10-09T09:35:15.010Z,78.75
2018-10-09T09:36:14.983Z,78.75
2018-10-09T09:37:15.037Z,78.75
2018-10-09T09:38:15.030Z,78.75
2018-10-09T09:39:15.071Z,78.75
2018-10-09T09:40:14.939Z,78.75
2018-10-09T09:41:14.926Z,78.75
2018-10-09T09:42:15.026Z,78.75
2018-10-09T09:43:15.021Z,78.75
2018-10-09T09:44:31.751Z,78.75
2018-10-09T09:45:14.856Z,78.75
2018-10-09T09:46:14.900Z,78.75
2018-10-09T09:47:14.830Z,78.75
2018-10-09T09:48:14.818Z,78.75
2018-10-09T09:49:14.838Z,84.38
2018-10-09T09:50:14.791Z,84.38
2018-10-09T09:51:14.771Z,84.38
2018-10-09T09:52:14.831Z,84.38
2018-10-09T09:53:14.810Z,90.00
2018-10-09T09:54:14.744Z,140.63
2018-10-09T09:55:14.722Z,191.25
2018-10-09T09:56:14.706Z,151.88
2018-10-09T09:57:14.696Z,129.38
2018-10-09T09:58:14.772Z,95.63
2018-10-09T09:59:14.722Z,90.00
2018-10-09T10:00:14.649Z,90.00
2018-10-09T10:01:14.642Z,106.88
2018-10-09T10:02:14.704Z,112.50
2018-10-09T10:03:14.610Z,90.00
2018-10-09T10:04:14.637Z,90.00
2018-10-09T10:05:14.589Z,95.63
2018-10-09T10:06:14.572Z,95.63
2018-10-09T10:07:14.567Z,101.25
2018-10-09T10:08:14.573Z,101.25
2018-10-09T10:09:14.556Z,118.13
2018-10-09T10:10:14.520Z,140.63
2018-10-09T10:11:14.510Z,123.75
2018-10-09T10:12:14.494Z,112.50
2018-10-09T10:13:14.493Z,118.13
2018-10-09T10:14:14.492Z,118.13
2018-10-09T10:15:14.497Z,129.38
2018-10-09T10:16:14.456Z,196.88
2018-10-09T10:17:14.439Z,191.25
2018-10-09T10:18:14.429Z,129.38
2018-10-09T10:19:14.405Z,140.63
2018-10-09T10:20:14.454Z,135.00
2018-10-09T10:21:14.424Z,118.13
2018-10-09T10:22:14.370Z,118.13
2018-10-09T10:23:14.368Z,112.50
2018-10-09T10:24:14.337Z,112.50
2018-10-09T10:25:14.340Z,112.50
2018-10-09T10:26:14.330Z,118.13
2018-10-09T10:27:14.366Z,112.50
2018-10-09T10:28:14.301Z,112.50
2018-10-09T10:29:14.344Z,118.13
2018-10-09T10:30:14.268Z,118.13
2018-10-09T10:31:14.252Z,118.13
2018-10-09T10:32:14.250Z,118.13
2018-10-09T10:33:14.293Z,129.38
2018-10-09T10:34:14.223Z,129.38
2018-10-09T10:35:14.216Z,123.75
2018-10-09T10:36:14.203Z,123.75
2018-10-09T10:37:14.183Z,123.75
2018-10-09T10:38:14.175Z,123.75
2018-10-09T10:39:14.161Z,123.75
2018-10-09T10:40:14.153Z,129.38
2018-10-09T10:41:14.126Z,129.38
2018-10-09T10:42:14.236Z,129.38
2018-10-09T10:43:14.104Z,135.00
2018-10-09T10:44:14.105Z,135.00
2018-10-09T10:45:14.088Z,140.63
2018-10-09T10:46:14.080Z,146.25
2018-10-09T10:47:14.066Z,146.25
2018-10-09T10:48:14.117Z,140.63
2018-10-09T10:49:14.033Z,151.88
2018-10-09T10:50:14.031Z,140.63
2018-10-09T10:51:14.017Z,140.63
2018-10-09T10:52:14.013Z,151.88
2018-10-09T10:53:14.006Z,151.88
2018-10-09T10:54:13.979Z,151.88
2018-10-09T10:55:13.968Z,151.88
2018-10-09T10:56:13.967Z,151.88
2018-10-09T10:57:13.936Z,151.88
2018-10-09T10:58:13.943Z,146.25
2018-10-09T10:59:13.914Z,146.25
2018-10-09T11:00:13.909Z,151.88
2018-10-09T11:01:13.976Z,151.88
2018-10-09T11:02:13.891Z,168.75
2018-10-09T11:03:13.884Z,151.88
2018-10-09T11:04:13.879Z,135.00
2018-10-09T11:05:13.850Z,135.00
2018-10-09T11:06:13.854Z,140.63
2018-10-09T11:07:13.850Z,146.25
2018-10-09T11:08:13.823Z,146.25
2018-10-09T11:09:13.808Z,146.25
2018-10-09T11:10:13.886Z,146.25
2018-10-09T11:11:13.777Z,157.50
2018-10-09T11:12:13.803Z,157.50
2018-10-09T11:13:13.755Z,157.50
2018-10-09T11:14:13.747Z,151.88
2018-10-09T11:15:13.731Z,168.75
2018-10-09T11:16:13.723Z,163.13
2018-10-09T11:17:13.743Z,163.13
2018-10-09T11:18:13.697Z,146.25
2018-10-09T11:19:13.693Z,146.25
2018-10-09T11:20:13.676Z,146.25
2018-10-09T11:21:13.742Z,146.25
2018-10-09T11:22:13.668Z,146.25
2018-10-09T11:23:13.688Z,146.25
2018-10-09T11:24:13.627Z,146.25
2018-10-09T11:25:13.619Z,146.25
2018-10-09T11:26:13.619Z,146.25
2018-10-09T11:27:13.617Z,140.63
2018-10-09T11:28:13.635Z,146.25
2018-10-09T11:29:13.596Z,146.25
2018-10-09T11:30:13.581Z,151.88
2018-10-09T11:31:13.559Z,163.13
2018-10-09T11:32:13.554Z,151.88
2018-10-09T11:33:13.532Z,157.50
2018-10-09T11:34:13.550Z,157.50
2018-10-09T11:35:13.556Z,157.50
2018-10-09T11:36:13.516Z,174.38
2018-10-09T11:37:13.498Z,225.00
2018-10-09T11:38:13.483Z,247.50
2018-10-09T11:39:13.465Z,191.25
2018-10-09T11:40:13.493Z,168.75
2018-10-09T11:41:13.453Z,163.13
2018-10-09T11:42:13.430Z,157.50
2018-10-09T11:43:13.444Z,157.50
2018-10-09T11:44:13.426Z,151.88
2018-10-09T11:45:13.440Z,151.88
2018-10-09T11:46:13.396Z,157.50
2018-10-09T11:47:13.380Z,157.50
2018-10-09T11:48:13.372Z,157.50
2018-10-09T11:49:13.374Z,157.50
2018-10-09T11:50:13.377Z,157.50
2018-10-09T11:51:13.347Z,157.50
2018-10-09T11:52:13.327Z,157.50
2018-10-09T11:53:13.322Z,157.50
2018-10-09T11:54:13.338Z,157.50
2018-10-09T11:55:13.290Z,151.88
2018-10-09T11:56:13.281Z,151.88
2018-10-09T11:57:13.315Z,146.25
2018-10-09T11:58:13.258Z,146.25
2018-10-09T11:59:13.321Z,146.25
2018-10-09T12:00:13.263Z,140.63
2018-10-09T12:01:13.243Z,140.63
2018-10-09T12:02:13.285Z,140.63
2018-10-09T12:03:13.224Z,135.00
2018-10-09T12:04:20.514Z,135.00
2018-10-09T12:05:13.205Z,135.00
2018-10-09T12:06:13.173Z,140.63
2018-10-09T12:07:13.164Z,135.00
2018-10-09T12:08:13.160Z,135.00
2018-10-09T12:09:13.193Z,123.75
2018-10-09T12:10:13.141Z,123.75
2018-10-09T12:11:13.143Z,123.75
2018-10-09T12:12:13.120Z,123.75
2018-10-09T12:13:13.163Z,118.13
2018-10-09T12:14:13.103Z,112.50
2018-10-09T12:15:13.093Z,123.75
2018-10-09T12:16:13.100Z,123.75
2018-10-09T12:17:13.071Z,118.13
2018-10-09T12:18:13.052Z,112.50
2018-10-09T12:19:13.112Z,112.50
2018-10-09T12:20:13.043Z,118.13
2018-10-09T12:21:13.020Z,123.75
2018-10-09T12:22:13.015Z,135.00
2018-10-09T12:23:13.017Z,140.63
2018-10-09T12:24:12.992Z,151.88
2018-10-09T12:25:12.987Z,157.50
2018-10-09T12:26:12.989Z,146.25
2018-10-09T12:27:13.037Z,157.50
2018-10-09T12:28:12.963Z,208.13
2018-10-09T12:29:12.938Z,275.63
2018-10-09T12:30:12.942Z,241.88
2018-10-09T12:31:12.920Z,225.00
2018-10-09T12:32:12.907Z,247.50
2018-10-09T12:33:12.897Z,270.00
2018-10-09T12:34:12.895Z,309.38
2018-10-09T12:35:12.883Z,292.50
2018-10-09T12:36:12.864Z,343.13
2018-10-09T12:37:12.865Z,399.38
2018-10-09T12:38:12.893Z,264.38
2018-10-09T12:39:12.832Z,174.38
2018-10-09T12:40:13.051Z,151.88
2018-10-09T12:41:12.839Z,151.88
2018-10-09T12:42:12.809Z,146.25
2018-10-09T12:43:12.802Z,151.88
2018-10-09T12:44:12.838Z,168.75
2018-10-09T12:45:12.790Z,241.88
2018-10-09T12:46:12.762Z,286.88
2018-10-09T12:47:12.766Z,270.00
2018-10-09T12:48:12.787Z,241.88
2018-10-09T12:49:12.747Z,281.25
2018-10-09T12:50:12.730Z,410.63
2018-10-09T12:51:12.718Z,382.50
2018-10-09T12:52:12.730Z,399.38
2018-10-09T12:53:12.727Z,348.75
2018-10-09T12:54:12.744Z,225.00
2018-10-09T12:55:12.675Z,168.75
2018-10-09T12:56:12.668Z,163.13
2018-10-09T12:57:12.731Z,196.88
2018-10-09T12:58:12.672Z,236.25
2018-10-09T12:59:12.655Z,258.75
2018-10-09T13:00:12.640Z,196.88
2018-10-09T13:01:12.631Z,163.13
2018-10-09T13:02:12.612Z,157.50
2018-10-09T13:03:12.689Z,208.13
2018-10-09T13:04:12.656Z,174.38
2018-10-09T13:05:12.582Z,163.13
2018-10-09T13:06:12.583Z,180.00
2018-10-09T13:07:12.561Z,208.13
2018-10-09T13:08:12.555Z,270.00
2018-10-09T13:09:12.542Z,450.00
2018-10-09T13:10:12.542Z,444.38
2018-10-09T13:11:12.527Z,433.13
2018-10-09T13:12:12.525Z,466.88
2018-10-09T13:13:12.502Z,371.25
2018-10-09T13:14:12.504Z,286.88
2018-10-09T13:15:12.517Z,275.63
2018-10-09T13:16:12.478Z,601.88
2018-10-09T13:17:12.488Z,776.25
2018-10-09T13:18:12.471Z,450.00
2018-10-09T13:19:12.482Z,247.50
2018-10-09T13:20:12.437Z,320.63
2018-10-09T13:21:12.594Z,371.25
2018-10-09T13:22:12.869Z,258.75
2018-10-09T13:23:12.422Z,174.38
2018-10-09T13:24:12.411Z,157.50
2018-10-09T13:25:12.399Z,151.88
2018-10-09T13:26:12.390Z,196.88
2018-10-09T13:27:12.481Z,180.00
2018-10-09T13:28:12.373Z,196.88
2018-10-09T13:29:12.372Z,219.38
2018-10-09T13:30:12.359Z,180.00
2018-10-09T13:31:12.356Z,157.50
2018-10-09T13:32:12.381Z,191.25
2018-10-09T13:33:12.342Z,185.63
2018-10-09T13:34:12.392Z,185.63
2018-10-09T13:35:12.317Z,213.75
2018-10-09T13:36:12.369Z,191.25
2018-10-09T13:37:12.334Z,157.50
2018-10-09T13:38:12.323Z,146.25
2018-10-09T13:39:12.293Z,157.50
2018-10-09T13:40:12.283Z,185.63
2018-10-09T13:41:12.325Z,185.63
2018-10-09T13:42:12.283Z,225.00
2018-10-09T13:43:12.240Z,202.50
2018-10-09T13:44:12.442Z,225.00
2018-10-09T13:45:12.235Z,168.75
2018-10-09T13:46:12.259Z,168.75
2018-10-09T13:47:12.316Z,180.00
2018-10-09T13:48:12.202Z,202.50
2018-10-09T13:49:12.225Z,180.00
2018-10-09T13:50:12.195Z,225.00
2018-10-09T13:51:12.174Z,331.88
2018-10-09T13:52:12.167Z,168.75
2018-10-09T13:53:12.167Z,191.25
2018-10-09T13:54:12.186Z,174.38
2018-10-09T13:55:12.166Z,303.75
2018-10-09T13:56:12.132Z,405.00
2018-10-09T13:57:12.168Z,331.88
2018-10-09T13:58:12.114Z,320.63
2018-10-09T13:59:12.310Z,382.50
2018-10-09T14:00:12.125Z,450.00
2018-10-09T14:01:12.101Z,607.50
2018-10-09T14:02:12.088Z,545.63
2018-10-09T14:03:12.160Z,455.63
2018-10-09T14:04:12.067Z,354.38
2018-10-09T14:05:12.058Z,315.00
2018-10-09T14:06:12.103Z,461.25
2018-10-09T14:07:12.037Z,528.75
2018-10-09T14:08:12.086Z,540.00
2018-10-09T14:09:12.016Z,393.75
2018-10-09T14:10:12.093Z,461.25
2018-10-09T14:11:12.014Z,500.63
2018-10-09T14:12:12.017Z,843.75
2018-10-09T14:13:11.992Z,731.25
2018-10-09T14:14:11.993Z,421.88
2018-10-09T14:15:12.035Z,241.88
2018-10-09T14:16:11.979Z,371.25
2018-10-09T14:17:11.976Z,759.38
2018-10-09T14:18:11.976Z,905.63
2018-10-09T14:19:11.955Z,973.13
2018-10-09T14:20:11.939Z,939.38
2018-10-09T14:21:11.940Z,961.88
2018-10-09T14:22:12.191Z,973.13
2018-10-09T14:23:11.992Z,939.38
2018-10-09T14:24:11.924Z,978.75
2018-10-09T14:25:11.906Z,1012.50
2018-10-09T14:26:11.912Z,990.00
2018-10-09T14:27:11.904Z,973.13
2018-10-09T14:28:11.942Z,973.13
2018-10-09T14:29:11.893Z,928.13
2018-10-09T14:30:11.886Z,877.50
2018-10-09T14:31:11.886Z,826.88
2018-10-09T14:32:11.894Z,815.63
2018-10-09T14:33:11.864Z,866.25
2018-10-09T14:34:11.868Z,855.00
2018-10-09T14:35:11.865Z,821.25
2018-10-09T14:39:25.950Z,793.13
2018-10-09T14:41:14.570Z,855.00
2018-10-09T14:41:25.873Z,849.38
2018-10-09T14:42:54.331Z,748.13
2018-10-09T14:43:25.862Z,810.00
2018-10-09T14:44:25.910Z,753.75
2018-10-09T14:45:25.894Z,781.88
2018-10-09T14:46:25.856Z,748.13
2018-10-09T14:47:25.852Z,652.50
2018-10-09T14:48:25.872Z,523.13
2018-10-09T14:49:25.850Z,405.00
2018-10-09T14:50:25.898Z,354.38
2018-10-09T14:51:25.848Z,337.50
2018-10-09T14:52:25.851Z,320.63
2018-10-09T14:53:25.830Z,303.75
2018-10-09T14:55:01.698Z,258.75
2018-10-09T14:55:25.824Z,230.63
2018-10-09T14:57:03.247Z,241.88
2018-10-09T14:57:25.844Z,225.00
2018-10-09T14:58:25.823Z,213.75
2018-10-09T14:59:25.824Z,213.75
2018-10-09T15:00:54.501Z,208.13
2018-10-09T15:08:58.775Z,191.25
2018-10-09T15:09:58.768Z,196.88
2018-10-09T15:17:15.336Z,157.50
2018-10-09T15:18:15.292Z,151.88
2018-10-09T15:21:09.946Z,118.13
2018-10-09T15:22:09.906Z,112.50
2018-10-09T15:23:09.898Z,112.50
2018-10-09T15:24:09.896Z,112.50
2018-10-09T15:25:09.896Z,112.50
2018-10-09T15:26:09.891Z,101.25
2018-10-09T15:27:09.961Z,90.00
2018-10-09T15:28:09.885Z,90.00
2018-10-09T15:29:09.955Z,84.38
2018-10-09T15:30:09.857Z,84.38
2018-10-09T15:31:09.852Z,90.00
2018-10-09T15:32:09.846Z,90.00
2018-10-09T15:33:09.872Z,90.00
2018-10-09T15:34:09.837Z,84.38
2018-10-09T15:35:09.853Z,84.38
2018-10-09T15:36:09.820Z,78.75
2018-10-09T15:37:09.811Z,78.75
2018-10-09T15:38:09.846Z,78.75
2018-10-09T15:39:09.799Z,78.75
2018-10-09T15:40:09.796Z,73.13
2018-10-09T15:41:09.845Z,73.13
2018-10-09T15:42:09.826Z,73.13
2018-10-09T15:43:09.774Z,73.13
2018-10-09T15:44:09.779Z,73.13
2018-10-09T15:45:17.011Z,73.13
2018-10-09T15:46:09.764Z,73.13
2018-10-09T15:47:09.861Z,73.13
2018-10-09T15:48:09.752Z,67.50
2018-10-09T15:49:09.744Z,67.50
2018-10-09T15:50:09.725Z,61.88
2018-10-09T15:51:09.733Z,56.25
2018-10-09T15:52:09.731Z,56.25
2018-10-09T15:53:09.758Z,56.25
2018-10-09T15:54:09.699Z,50.63
2018-10-09T15:55:09.705Z,50.63
2018-10-09T15:56:09.688Z,50.63
2018-10-09T15:57:09.684Z,45.00
2018-10-09T15:58:09.740Z,45.00
2018-10-09T15:59:09.678Z,45.00
2018-10-09T16:00:09.664Z,45.00
2018-10-09T16:01:09.649Z,45.00
2018-10-09T16:02:09.652Z,45.00
2018-10-09T16:03:09.637Z,39.38
2018-10-09T16:04:09.673Z,39.38
2018-10-09T16:05:09.623Z,39.38
2018-10-09T16:06:09.615Z,39.38
2018-10-09T16:07:09.610Z,39.38
2018-10-09T16:08:09.605Z,39.38
2018-10-09T16:09:09.624Z,33.75
2018-10-09T16:10:09.592Z,33.75
2018-10-09T16:11:09.575Z,33.75
2018-10-09T16:12:09.564Z,33.75
2018-10-09T16:13:09.567Z,33.75
2018-10-09T16:14:09.579Z,28.13
2018-10-09T16:15:09.603Z,28.13
2018-10-09T16:16:09.529Z,28.13
2018-10-09T16:17:09.525Z,28.13
2018-10-09T16:18:09.522Z,28.13
2018-10-09T16:19:09.520Z,28.13
2018-10-09T16:20:09.495Z,22.50
2018-10-09T16:21:09.517Z,22.50
2018-10-09T16:22:09.486Z,16.88
2018-10-09T16:23:09.479Z,16.88
2018-10-09T16:24:09.466Z,16.88
2018-10-09T16:25:09.464Z,16.88
2018-10-09T16:26:09.519Z,16.88
2018-10-09T16:27:09.446Z,11.25
2018-10-09T16:28:09.450Z,11.25
2018-10-09T16:29:09.436Z,11.25
2018-10-09T16:30:09.416Z,11.25
2018-10-09T16:31:09.420Z,5.63
2018-10-09T16:32:09.426Z,5.63
2018-10-09T16:33:09.408Z,5.63
2018-10-09T16:34:09.390Z,5.63
2018-10-09T16:35:09.382Z,5.63
2018-10-09T16:36:09.361Z,5.63
2018-10-09T16:37:09.348Z,5.63
2018-10-09T16:38:09.344Z,5.63
2018-10-09T16:39:09.327Z,5.63
2018-10-09T16:40:09.326Z,0.00
2018-10-09T16:41:09.354Z,0.00
2018-10-09T16:42:09.301Z,0.00
2018-10-09T16:43:09.295Z,0.00
2018-10-09T16:44:09.297Z,0.00
2018-10-09T16:45:09.287Z,0.00
2018-10-09T16:46:09.271Z,0.00
2018-10-09T16:47:09.282Z,0.00
2018-10-09T16:48:09.244Z,0.00
2018-10-09T16:49:09.232Z,0.00
2018-10-09T16:50:09.222Z,0.00
2018-10-09T16:51:09.224Z,0.00
2018-10-09T16:52:09.266Z,0.00
2018-10-09T16:53:09.248Z,0.00
2018-10-09T16:54:09.188Z,0.00
2018-10-09T16:55:09.186Z,0.00
2018-10-09T16:56:09.172Z,0.00
2018-10-09T16:57:09.156Z,0.00
2018-10-09T16:58:09.162Z,0.00
2018-10-09T16:59:09.139Z,0.00
2018-10-09T17:00:09.134Z,0.00
2018-10-09T17:01:09.326Z,0.00
2018-10-09T17:02:09.108Z,0.00
2018-10-09T17:03:09.109Z,0.00
2018-10-09T17:04:09.118Z,0.00
2018-10-09T17:05:09.097Z,0.00
2018-10-09T17:06:09.070Z,0.00
2018-10-09T17:07:09.058Z,0.00
2018-10-09T17:08:09.055Z,0.00
2018-10-09T17:09:09.039Z,0.00
2018-10-09T17:10:09.062Z,0.00
2018-10-09T17:11:09.031Z,0.00
2018-10-09T17:12:09.014Z,0.00
2018-10-09T17:13:09.007Z,0.00
2018-10-09T17:14:09.025Z,0.00
2018-10-09T17:15:09.048Z,0.00
2018-10-09T17:16:08.978Z,0.00
2018-10-09T17:17:08.958Z,0.00
2018-10-09T17:18:08.952Z,0.00
2018-10-09T17:19:08.942Z,0.00
2018-10-09T17:20:08.937Z,0.00
2018-10-09T17:21:08.909Z,0.00
2018-10-09T17:22:08.964Z,0.00
2018-10-09T17:23:08.904Z,0.00
2018-10-09T17:24:08.874Z,0.00
2018-10-09T17:25:08.870Z,0.00
2018-10-09T17:26:08.868Z,0.00
2018-10-09T17:27:08.842Z,0.00
2018-10-09T17:28:08.843Z,0.00
2018-10-09T17:29:08.825Z,0.00
2018-10-09T17:30:08.828Z,0.00
2018-10-09T17:31:08.848Z,0.00
2018-10-09T17:32:08.808Z,0.00
2018-10-09T17:33:08.851Z,0.00
2018-10-09T17:34:08.797Z,0.00
2018-10-09T17:35:08.805Z,0.00
2018-10-09T17:36:08.760Z,0.00
2018-10-09T17:37:08.785Z,0.00
2018-10-09T17:38:08.731Z,0.00
2018-10-09T17:39:08.781Z,0.00
2018-10-09T17:40:08.706Z,0.00
2018-10-09T17:41:08.708Z,0.00
2018-10-09T17:42:08.742Z,0.00
2018-10-09T17:43:08.686Z,0.00
2018-10-09T17:44:08.685Z,0.00
2018-10-09T17:45:08.680Z,0.00
2018-10-09T17:46:08.657Z,0.00
2018-10-09T17:47:08.656Z,0.00
2018-10-09T17:48:08.624Z,0.00
2018-10-09T17:49:08.619Z,0.00
2018-10-09T17:50:08.640Z,0.00
2018-10-09T17:51:08.619Z,0.00
2018-10-09T17:52:08.594Z,0.00
2018-10-09T17:53:08.567Z,0.00
2018-10-09T17:54:08.617Z,0.00
2018-10-09T17:55:08.563Z,0.00
2018-10-09T17:56:08.534Z,0.00
2018-10-09T17:57:08.528Z,0.00
2018-10-09T17:58:08.515Z,0.00
2018-10-09T17:59:08.504Z,0.00
2018-10-09T18:00:08.492Z,0.00
2018-10-09T18:01:08.521Z,0.00
2018-10-09T18:02:08.460Z,0.00
2018-10-09T18:03:08.487Z,0.00
2018-10-09T18:04:08.453Z,0.00
2018-10-09T18:05:08.439Z,0.00
2018-10-09T18:06:08.467Z,0.00
2018-10-09T18:07:08.410Z,0.00
2018-10-09T18:08:08.451Z,0.00
2018-10-09T18:09:08.379Z,0.00
2018-10-09T18:10:08.378Z,0.00
2018-10-09T18:11:08.367Z,0.00
2018-10-09T18:12:08.355Z,0.00
2018-10-09T18:13:08.339Z,0.00
2018-10-09T18:14:08.351Z,0.00
2018-10-09T18:15:08.381Z,0.00
2018-10-09T18:16:08.306Z,0.00
2018-10-09T18:17:08.284Z,0.00
2018-10-09T18:18:08.336Z,0.00
2018-10-09T18:19:08.262Z,0.00
2018-10-09T18:20:08.297Z,0.00
2018-10-09T18:21:08.245Z,0.00
2018-10-09T18:22:08.415Z,0.00
2018-10-09T18:23:08.216Z,0.00
2018-10-09T18:24:08.249Z,0.00
2018-10-09T18:25:08.205Z,0.00
2018-10-09T18:26:08.219Z,0.00
2018-10-09T18:27:08.180Z,0.00
2018-10-09T18:28:08.210Z,0.00
2018-10-09T18:29:08.163Z,0.00
2018-10-09T18:30:08.135Z,0.00
2018-10-09T18:31:08.126Z,0.00
2018-10-09T18:32:08.122Z,0.00
2018-10-09T18:33:08.248Z,0.00
2018-10-09T18:34:08.091Z,0.00
2018-10-09T18:35:08.073Z,0.00
2018-10-09T18:36:08.078Z,0.00
2018-10-09T18:37:08.073Z,0.00
2018-10-09T18:38:08.053Z,0.00
2018-10-09T18:39:08.102Z,0.00
2018-10-09T18:40:08.020Z,0.00
2018-10-09T18:41:08.112Z,0.00
2018-10-09T18:42:08.060Z,0.00
2018-10-09T18:43:07.989Z,0.00
2018-10-09T18:44:07.971Z,0.00
2018-10-09T18:45:07.994Z,0.00
2018-10-09T18:46:07.944Z,0.00
2018-10-09T18:47:07.941Z,0.00
2018-10-09T18:48:07.927Z,0.00
2018-10-09T18:49:07.921Z,0.00
2018-10-09T18:50:07.902Z,0.00
2018-10-09T18:51:07.905Z,0.00
2018-10-09T18:52:07.888Z,0.00
2018-10-09T18:53:07.861Z,0.00
2018-10-09T18:54:07.852Z,0.00
2018-10-09T18:55:07.878Z,0.00
2018-10-09T18:56:07.835Z,0.00
2018-10-09T18:57:07.833Z,0.00
2018-10-09T18:58:07.807Z,0.00
2018-10-09T18:59:07.786Z,0.00
2018-10-09T19:00:07.809Z,0.00
2018-10-09T19:01:07.764Z,0.00
2018-10-09T19:02:07.753Z,0.00
2018-10-09T19:03:07.741Z,0.00
2018-10-09T19:04:07.732Z,0.00
2018-10-09T19:05:07.759Z,0.00
2018-10-09T19:06:07.835Z,0.00
2018-10-09T19:07:07.712Z,0.00
2018-10-09T19:08:07.680Z,0.00
2018-10-09T19:09:07.676Z,0.00
2018-10-09T19:10:07.666Z,0.00
2018-10-09T19:11:07.637Z,0.00
2018-10-09T19:12:07.660Z,0.00
2018-10-09T19:13:07.617Z,0.00
2018-10-09T19:14:07.599Z,0.00
2018-10-09T19:15:07.601Z,0.00
2018-10-09T19:16:07.610Z,0.00
2018-10-09T19:17:07.571Z,0.00
2018-10-09T19:18:07.568Z,0.00
2018-10-09T19:19:07.557Z,0.00
2018-10-09T19:20:07.596Z,0.00
2018-10-09T19:21:07.534Z,0.00
2018-10-09T19:22:07.519Z,0.00
2018-10-09T19:23:07.515Z,0.00
2018-10-09T19:24:07.482Z,0.00
2018-10-09T19:25:07.485Z,0.00
2018-10-09T19:26:07.500Z,0.00
2018-10-09T19:27:07.448Z,0.00
2018-10-09T19:28:07.451Z,0.00
2018-10-09T19:29:07.439Z,0.00
2018-10-09T19:30:07.423Z,0.00
2018-10-09T19:31:07.460Z,0.00
2018-10-09T19:32:07.380Z,0.00
2018-10-09T19:33:07.371Z,0.00
2018-10-09T19:34:07.370Z,0.00
2018-10-09T19:35:07.378Z,0.00
2018-10-09T19:36:07.326Z,0.00
2018-10-09T19:37:07.327Z,0.00
2018-10-09T19:38:07.311Z,0.00
2018-10-09T19:39:07.310Z,0.00
2018-10-09T19:40:07.283Z,0.00
2018-10-09T19:41:07.268Z,0.00
2018-10-09T19:42:07.272Z,0.00
2018-10-09T19:43:07.283Z,0.00
2018-10-09T19:44:07.235Z,0.00
2018-10-09T19:45:07.288Z,0.00
2018-10-09T19:46:07.221Z,0.00
2018-10-09T19:47:07.217Z,0.00
2018-10-09T19:48:07.187Z,0.00
2018-10-09T19:49:07.178Z,0.00
2018-10-09T19:50:07.173Z,0.00
2018-10-09T19:51:07.372Z,0.00
2018-10-09T19:52:07.137Z,0.00
2018-10-09T19:53:07.131Z,0.00
2018-10-09T19:54:07.111Z,0.00
2018-10-09T19:55:07.182Z,0.00
2018-10-09T19:56:07.099Z,0.00
2018-10-09T19:57:07.081Z,0.00
2018-10-09T19:58:07.065Z,0.00
2018-10-09T19:59:07.068Z,0.00
2018-10-09T20:00:07.051Z,0.00
2018-10-09T20:01:07.148Z,0.00
2018-10-09T20:02:07.017Z,0.00
2018-10-09T20:03:07.005Z,0.00
2018-10-09T20:04:06.996Z,0.00
2018-10-09T20:05:06.983Z,0.00
2018-10-09T20:06:06.994Z,0.00
2018-10-09T20:07:06.957Z,0.00
2018-10-09T20:08:06.942Z,0.00
2018-10-09T20:09:06.934Z,0.00
2018-10-09T20:10:06.926Z,0.00
2018-10-09T20:11:06.945Z,0.00
2018-10-09T20:12:06.888Z,0.00
2018-10-09T20:13:06.876Z,0.00
2018-10-09T20:14:06.867Z,0.00
2018-10-09T20:15:06.845Z,0.00
2018-10-09T20:16:06.835Z,0.00
2018-10-09T20:17:06.825Z,0.00
2018-10-09T20:18:06.817Z,0.00
2018-10-09T20:19:06.813Z,0.00
2018-10-09T20:20:06.797Z,0.00
2018-10-09T20:21:06.781Z,0.00
2018-10-09T20:22:06.775Z,0.00
2018-10-09T20:23:06.752Z,0.00
2018-10-09T20:24:06.749Z,0.00
2018-10-09T20:25:06.734Z,0.00
2018-10-09T20:26:06.726Z,0.00
2018-10-09T20:27:06.715Z,0.00
2018-10-09T20:28:06.683Z,0.00
2018-10-09T20:29:06.743Z,0.00
2018-10-09T20:30:06.662Z,0.00
2018-10-09T20:31:06.646Z,0.00
2018-10-09T20:32:06.634Z,0.00
2018-10-09T20:33:06.645Z,0.00
2018-10-09T20:34:06.611Z,0.00
2018-10-09T20:35:06.686Z,0.00
2018-10-09T20:36:06.597Z,0.00
2018-10-09T20:37:06.583Z,0.00
2018-10-09T20:38:06.573Z,0.00
2018-10-09T20:39:06.546Z,0.00
2018-10-09T20:40:06.541Z,0.00
2018-10-09T20:41:06.537Z,0.00
2018-10-09T20:42:06.552Z,0.00
2018-10-09T20:43:06.505Z,0.00
2018-10-09T20:44:06.479Z,0.00
2018-10-09T20:45:06.482Z,0.00
2018-10-09T20:46:06.519Z,0.00
2018-10-09T20:47:06.452Z,0.00
2018-10-09T20:48:06.447Z,0.00
2018-10-09T20:49:06.441Z,0.00
2018-10-09T20:50:06.412Z,0.00
2018-10-09T20:51:06.407Z,0.00
2018-10-09T20:52:06.418Z,0.00
2018-10-09T20:53:06.384Z,0.00
2018-10-09T20:54:06.356Z,0.00
2018-10-09T20:55:06.358Z,0.00
2018-10-09T20:56:06.335Z,0.00
2018-10-09T20:57:06.402Z,0.00
2018-10-09T20:58:06.317Z,0.00
2018-10-09T20:59:06.294Z,0.00
2018-10-09T21:00:06.278Z,0.00
2018-10-09T21:01:08.326Z,0.00
2018-10-09T21:02:06.272Z,0.00
2018-10-09T21:03:06.280Z,0.00
2018-10-09T21:04:06.251Z,0.00
2018-10-09T21:05:06.233Z,0.00
2018-10-09T21:06:06.255Z,0.00
2018-10-09T21:07:06.196Z,0.00
2018-10-09T21:08:06.244Z,0.00
2018-10-09T21:09:06.189Z,0.00
2018-10-09T21:10:06.162Z,0.00
2018-10-09T21:11:06.156Z,0.00
2018-10-09T21:12:06.131Z,0.00
2018-10-09T21:13:06.118Z,0.00
2018-10-09T21:14:06.114Z,0.00
2018-10-09T21:15:06.101Z,0.00
2018-10-09T21:16:06.093Z,0.00
2018-10-09T21:17:06.077Z,0.00
2018-10-09T21:18:06.067Z,0.00
2018-10-09T21:19:06.079Z,0.00
2018-10-09T21:20:06.030Z,0.00
2018-10-09T21:21:06.015Z,0.00
2018-10-09T21:22:06.021Z,0.00
2018-10-09T21:23:05.996Z,0.00
2018-10-09T21:24:06.039Z,0.00
2018-10-09T21:25:05.984Z,0.00
2018-10-09T21:26:05.968Z,0.00
2018-10-09T21:27:05.938Z,0.00
2018-10-09T21:28:05.940Z,0.00
2018-10-09T21:29:05.920Z,0.00
2018-10-09T21:30:05.955Z,0.00
2018-10-09T21:31:05.910Z,0.00
2018-10-09T21:32:05.880Z,0.00
2018-10-09T21:33:05.864Z,0.00
2018-10-09T21:34:05.852Z,0.00
2018-10-09T21:35:05.836Z,0.00
2018-10-09T21:36:05.831Z,0.00
2018-10-09T21:37:05.822Z,0.00
2018-10-09T21:38:05.809Z,0.00
2018-10-09T21:39:05.792Z,0.00
2018-10-09T21:40:05.981Z,0.00
2018-10-09T21:41:05.767Z,0.00
2018-10-09T21:42:05.759Z,0.00
2018-10-09T21:43:05.748Z,0.00
2018-10-09T21:44:05.740Z,0.00
2018-10-09T21:45:05.711Z,0.00
2018-10-09T21:46:05.704Z,0.00
2018-10-09T21:47:05.695Z,0.00
2018-10-09T21:48:05.669Z,0.00
2018-10-09T21:49:05.662Z,0.00
2018-10-09T21:50:05.673Z,0.00
2018-10-09T21:51:05.640Z,0.00
2018-10-09T21:52:05.633Z,0.00
2018-10-09T21:53:05.607Z,0.00
2018-10-09T21:54:05.604Z,0.00
2018-10-09T21:55:05.613Z,0.00
2018-10-09T21:56:05.569Z,0.00
2018-10-09T21:57:05.601Z,0.00
2018-10-09T21:58:05.560Z,0.00
2018-10-09T21:59:05.528Z,0.00
2018-10-09T22:00:05.579Z,0.00
2018-10-09T22:01:05.514Z,0.00
2018-10-09T22:02:05.494Z,0.00
2018-10-09T22:03:05.484Z,0.00
2018-10-09T22:04:05.463Z,0.00
2018-10-09T22:05:05.450Z,0.00
2018-10-09T22:06:05.450Z,0.00
2018-10-09T22:07:05.510Z,0.00
2018-10-09T22:08:05.410Z,0.00
2018-10-09T22:09:05.410Z,0.00
2018-10-09T22:10:05.395Z,0.00
2018-10-09T22:11:05.371Z,0.00
2018-10-09T22:12:05.366Z,0.00
2018-10-09T22:13:05.360Z,0.00
2018-10-09T22:14:05.330Z,0.00
2018-10-09T22:15:05.337Z,0.00
2018-10-09T22:16:05.309Z,0.00
2018-10-09T22:17:05.293Z,0.00
2018-10-09T22:18:05.303Z,0.00
2018-10-09T22:19:05.277Z,0.00
2018-10-09T22:20:05.267Z,0.00
2018-10-09T22:21:05.248Z,0.00
2018-10-09T22:22:05.244Z,0.00